createdAt,value
2018-09-10T00:00:14.065Z,99694.16
2018-09-10T00:00:45.193Z,99688.66
2018-09-10T00:01:16.327Z,99694.34
2018-09-10T00:01:47.427Z,99700.00
2018-09-10T00:02:18.569Z,99686.27
2018-09-10T00:02:49.722Z,99694.53
2018-09-10T00:03:20.844Z,99691.30
2018-09-10T00:03:51.979Z,99694.47
2018-09-10T00:04:23.095Z,99689.63
2018-09-10T00:04:54.219Z,99693.23
2018-09-10T00:05:25.337Z,99693.95
2018-09-10T00:05:56.452Z,99688.92
2018-09-10T00:06:27.564Z,99690.70
2018-09-10T00:06:58.686Z,99689.03
2018-09-10T00:07:29.819Z,99686.46
2018-09-10T00:08:01.011Z,99691.89
2018-09-10T00:08:32.125Z,99688.85
2018-09-10T00:09:03.252Z,99689.92
2018-09-10T00:09:34.385Z,99689.54
2018-09-10T00:10:05.495Z,99696.30
2018-09-10T00:10:36.691Z,99688.44
2018-09-10T00:11:07.820Z,99680.37
2018-09-10T00:11:38.939Z,99681.31
2018-09-10T00:12:10.050Z,99677.83
2018-09-10T00:12:41.161Z,99684.92
2018-09-10T00:13:12.268Z,99683.25
2018-09-10T00:13:43.387Z,99683.13
2018-09-10T00:14:14.513Z,99672.98
2018-09-10T00:14:45.623Z,99682.56
2018-09-10T00:15:16.751Z,99675.81
2018-09-10T00:15:47.890Z,99674.48
2018-09-10T00:16:19.035Z,99684.16
2018-09-10T00:16:50.174Z,99681.84
2018-09-10T00:17:21.267Z,99686.31
2018-09-10T00:17:52.402Z,99679.11
2018-09-10T00:18:23.600Z,99681.79
2018-09-10T00:18:54.763Z,99688.84
2018-09-10T00:19:25.890Z,99684.28
2018-09-10T00:19:57.002Z,99685.61
2018-09-10T00:20:28.104Z,99680.67
2018-09-10T00:20:59.244Z,99677.53
2018-09-10T00:21:30.374Z,99686.25
2018-09-10T00:22:02.013Z,99685.38
2018-09-10T00:22:33.126Z,99679.35
2018-09-10T00:23:04.242Z,99683.67
2018-09-10T00:23:35.374Z,99685.38
2018-09-10T00:24:06.475Z,99684.66
2018-09-10T00:24:37.582Z,99687.40
2018-09-10T00:25:08.693Z,99679.14
2018-09-10T00:25:39.793Z,99684.94
2018-09-10T00:26:10.890Z,99685.40
2018-09-10T00:26:42.039Z,99682.48
2018-09-10T00:27:13.167Z,99679.37
2018-09-10T00:27:44.310Z,99680.44
2018-09-10T00:28:15.483Z,99680.89
2018-09-10T00:28:46.604Z,99681.84
2018-09-10T00:29:17.824Z,99676.53
2018-09-10T00:29:48.972Z,99679.68
2018-09-10T00:30:20.086Z,99684.61
2018-09-10T00:30:51.200Z,99684.23
2018-09-10T00:31:22.322Z,99683.02
2018-09-10T00:31:53.465Z,99688.33
2018-09-10T00:32:24.580Z,99684.58
2018-09-10T00:32:55.706Z,99686.73
2018-09-10T00:33:27.730Z,99691.47
2018-09-10T00:33:58.845Z,99684.34
2018-09-10T00:34:29.993Z,99688.33
2018-09-10T00:35:01.121Z,99691.62
2018-09-10T00:35:32.226Z,99684.88
2018-09-10T00:36:03.350Z,99685.14
2018-09-10T00:36:34.456Z,99692.03
2018-09-10T00:37:05.584Z,99689.33
2018-09-10T00:37:36.703Z,99690.66
2018-09-10T00:38:07.834Z,99693.08
2018-09-10T00:38:38.948Z,99689.85
2018-09-10T00:39:10.063Z,99687.40
2018-09-10T00:39:41.191Z,99690.16
2018-09-10T00:40:12.319Z,99684.86
2018-09-10T00:40:43.453Z,99686.67
2018-09-10T00:41:14.579Z,99688.05
2018-09-10T00:41:45.755Z,99693.02
2018-09-10T00:42:16.875Z,99695.06
2018-09-10T00:42:47.981Z,99688.42
2018-09-10T00:43:19.100Z,99685.89
2018-09-10T00:43:50.203Z,99690.36
2018-09-10T00:44:21.311Z,99689.61
2018-09-10T00:44:52.442Z,99689.23
2018-09-10T00:45:23.584Z,99687.91
2018-09-10T00:45:54.717Z,99689.88
2018-09-10T00:46:25.859Z,99686.27
2018-09-10T00:46:56.968Z,99684.02
2018-09-10T00:47:28.095Z,99687.10
2018-09-10T00:47:59.204Z,99690.16
2018-09-10T00:48:30.318Z,99686.19
2018-09-10T00:49:01.428Z,99682.58
2018-09-10T00:49:32.541Z,99681.52
2018-09-10T00:50:03.711Z,99687.08
2018-09-10T00:50:34.888Z,99685.52
2018-09-10T00:51:06.036Z,99688.09
2018-09-10T00:51:37.149Z,99687.41
2018-09-10T00:52:08.300Z,99675.72
2018-09-10T00:52:39.444Z,99687.55
2018-09-10T00:53:10.549Z,99688.30
2018-09-10T00:53:41.651Z,99681.92
2018-09-10T00:54:12.759Z,99682.77
2018-09-10T00:54:43.902Z,99680.11
2018-09-10T00:55:15.039Z,99683.72
2018-09-10T00:55:46.215Z,99682.62
2018-09-10T00:56:17.339Z,99678.63
2018-09-10T00:56:48.451Z,99691.53
2018-09-10T00:57:19.560Z,99680.91
2018-09-10T00:57:50.715Z,99691.66
2018-09-10T00:58:21.863Z,99687.75
2018-09-10T00:58:52.979Z,99684.95
2018-09-10T00:59:24.121Z,99687.15
2018-09-10T00:59:55.236Z,99688.18
2018-09-10T01:00:26.352Z,99690.75
2018-09-10T01:00:57.464Z,99687.23
2018-09-10T01:01:28.570Z,99687.23
2018-09-10T01:01:59.685Z,99687.92
2018-09-10T01:02:30.838Z,99694.47
2018-09-10T01:03:01.957Z,99690.58
2018-09-10T01:03:33.071Z,99681.89
2018-09-10T01:04:04.183Z,99690.55
2018-09-10T01:04:35.299Z,99691.49
2018-09-10T01:05:06.439Z,99687.70
2018-09-10T01:05:37.605Z,99697.00
2018-09-10T01:06:08.742Z,99691.69
2018-09-10T01:06:39.856Z,99687.70
2018-09-10T01:07:10.988Z,99696.39
2018-09-10T01:07:42.127Z,99684.06
2018-09-10T01:08:13.249Z,99689.59
2018-09-10T01:08:44.378Z,99689.33
2018-09-10T01:09:15.479Z,99686.94
2018-09-10T01:09:46.599Z,99690.92
2018-09-10T01:10:17.725Z,99687.77
2018-09-10T01:10:48.890Z,99685.98
2018-09-10T01:11:20.039Z,99691.38
2018-09-10T01:11:51.156Z,99683.53
2018-09-10T01:12:22.282Z,99687.59
2018-09-10T01:12:53.388Z,99686.00
2018-09-10T01:13:24.525Z,99686.95
2018-09-10T01:13:55.638Z,99686.13
2018-09-10T01:14:26.744Z,99688.48
2018-09-10T01:14:57.851Z,99688.59
2018-09-10T01:15:28.964Z,99688.33
2018-09-10T01:16:00.112Z,99689.28
2018-09-10T01:16:31.223Z,99687.80
2018-09-10T01:17:02.392Z,99687.42
2018-09-10T01:17:33.541Z,99688.59
2018-09-10T01:18:04.652Z,99682.08
2018-09-10T01:18:35.816Z,99688.22
2018-09-10T01:19:06.956Z,99690.98
2018-09-10T01:19:38.086Z,99693.16
2018-09-10T01:20:09.217Z,99685.42
2018-09-10T01:20:40.351Z,99690.34
2018-09-10T01:21:11.472Z,99689.52
2018-09-10T01:21:42.607Z,99691.41
2018-09-10T01:22:13.715Z,99687.05
2018-09-10T01:22:44.820Z,99689.59
2018-09-10T01:23:15.942Z,99690.20
2018-09-10T01:23:47.196Z,99680.98
2018-09-10T01:24:18.344Z,99682.80
2018-09-10T01:24:49.482Z,99679.20
2018-09-10T01:25:20.619Z,99685.23
2018-09-10T01:25:51.716Z,99683.91
2018-09-10T01:26:22.823Z,99683.34
2018-09-10T01:26:53.952Z,99685.53
2018-09-10T01:27:25.078Z,99683.14
2018-09-10T01:27:56.196Z,99683.87
2018-09-10T01:28:27.329Z,99683.87
2018-09-10T01:28:58.492Z,99686.52
2018-09-10T01:29:29.620Z,99688.45
2018-09-10T01:30:00.734Z,99688.91
2018-09-10T01:30:31.838Z,99689.59
2018-09-10T01:31:02.939Z,99684.52
2018-09-10T01:31:34.051Z,99685.66
2018-09-10T01:32:05.146Z,99682.16
2018-09-10T01:32:36.271Z,99686.71
2018-09-10T01:33:07.383Z,99683.23
2018-09-10T01:33:38.495Z,99692.13
2018-09-10T01:34:09.635Z,99693.30
2018-09-10T01:34:40.757Z,99695.20
2018-09-10T01:35:11.881Z,99695.20
2018-09-10T01:35:42.982Z,99690.50
2018-09-10T01:36:14.596Z,99696.64
2018-09-10T01:36:45.740Z,99698.80
2018-09-10T01:37:16.848Z,99689.74
2018-09-10T01:37:47.957Z,99695.42
2018-09-10T01:38:19.073Z,99694.78
2018-09-10T01:38:50.180Z,99695.61
2018-09-10T01:39:21.336Z,99699.21
2018-09-10T01:39:52.451Z,99695.34
2018-09-10T01:40:23.577Z,99695.84
2018-09-10T01:40:54.688Z,99694.51
2018-09-10T01:41:25.837Z,99696.78
2018-09-10T01:41:56.958Z,99695.84
2018-09-10T01:42:28.059Z,99700.65
2018-09-10T01:42:59.180Z,99695.84
2018-09-10T01:43:30.297Z,99695.34
2018-09-10T01:44:01.414Z,99695.45
2018-09-10T01:44:32.590Z,99688.26
2018-09-10T01:45:03.733Z,99694.89
2018-09-10T01:45:34.855Z,99695.23
2018-09-10T01:46:05.959Z,99690.91
2018-09-10T01:46:37.063Z,99691.36
2018-09-10T01:47:08.195Z,99695.56
2018-09-10T01:47:39.288Z,99691.67
2018-09-10T01:48:11.105Z,99684.77
2018-09-10T01:48:42.234Z,99688.13
2018-09-10T01:49:13.336Z,99689.08
2018-09-10T01:49:44.510Z,99688.32
2018-09-10T01:50:15.662Z,99691.08
2018-09-10T01:50:46.763Z,99689.88
2018-09-10T01:51:17.885Z,99689.88
2018-09-10T01:51:49.010Z,99689.11
2018-09-10T01:52:20.137Z,99681.16
2018-09-10T01:52:51.251Z,99687.30
2018-09-10T01:53:22.363Z,99689.95
2018-09-10T01:53:53.467Z,99685.13
2018-09-10T01:54:24.599Z,99686.95
2018-09-10T01:54:55.747Z,99679.83
2018-09-10T01:55:26.884Z,99684.91
2018-09-10T01:55:58.019Z,99687.11
2018-09-10T01:56:29.130Z,99690.59
2018-09-10T01:57:00.302Z,99687.38
2018-09-10T01:57:31.425Z,99683.66
2018-09-10T01:58:02.595Z,99680.91
2018-09-10T01:58:33.734Z,99685.27
2018-09-10T01:59:05.401Z,99682.98
2018-09-10T01:59:36.526Z,99679.16
2018-09-10T02:00:07.695Z,99680.76
2018-09-10T02:00:38.834Z,99681.02
2018-09-10T02:01:10.241Z,99683.11
2018-09-10T02:01:41.357Z,99683.75
2018-09-10T02:02:12.502Z,99677.01
2018-09-10T02:02:43.622Z,99677.58
2018-09-10T02:03:14.762Z,99674.20
2018-09-10T02:03:45.974Z,99677.65
2018-09-10T02:04:17.102Z,99678.70
2018-09-10T02:04:48.219Z,99683.71
2018-09-10T02:05:19.331Z,99680.91
2018-09-10T02:05:50.486Z,99671.35
2018-09-10T02:06:21.608Z,99681.58
2018-09-10T02:06:52.710Z,99683.97
2018-09-10T02:07:23.846Z,99677.94
2018-09-10T02:07:54.942Z,99680.59
2018-09-10T02:08:26.089Z,99675.85
2018-09-10T02:08:57.298Z,99682.10
2018-09-10T02:09:28.452Z,99680.51
2018-09-10T02:09:59.638Z,99682.40
2018-09-10T02:10:30.754Z,99688.16
2018-09-10T02:11:01.866Z,99682.70
2018-09-10T02:11:32.980Z,99683.64
2018-09-10T02:12:04.161Z,99682.88
2018-09-10T02:12:35.301Z,99684.59
2018-09-10T02:13:06.427Z,99679.85
2018-09-10T02:13:37.563Z,99682.50
2018-09-10T02:14:09.095Z,99681.28
2018-09-10T02:14:40.212Z,99683.94
2018-09-10T02:15:11.380Z,99682.61
2018-09-10T02:15:42.480Z,99681.78
2018-09-10T02:16:13.575Z,99682.23
2018-09-10T02:16:44.714Z,99682.72
2018-09-10T02:17:15.949Z,99678.37
2018-09-10T02:17:47.035Z,99681.39
2018-09-10T02:18:18.162Z,99674.66
2018-09-10T02:18:49.279Z,99682.50
2018-09-10T02:19:20.405Z,99680.34
2018-09-10T02:19:51.516Z,99679.50
2018-09-10T02:20:22.754Z,99681.39
2018-09-10T02:20:53.808Z,99678.94
2018-09-10T02:21:24.965Z,99680.59
2018-09-10T02:21:56.120Z,99686.67
2018-09-10T02:22:27.246Z,99682.88
2018-09-10T02:22:58.403Z,99680.06
2018-09-10T02:23:29.557Z,99678.92
2018-09-10T02:24:00.647Z,99681.89
2018-09-10T02:24:31.829Z,99680.57
2018-09-10T02:25:02.964Z,99677.16
2018-09-10T02:25:34.071Z,99683.13
2018-09-10T02:26:05.203Z,99681.64
2018-09-10T02:26:36.324Z,99680.98
2018-09-10T02:27:07.492Z,99682.41
2018-09-10T02:27:38.713Z,99678.16
2018-09-10T02:28:09.791Z,99684.20
2018-09-10T02:28:40.903Z,99680.06
2018-09-10T02:29:12.046Z,99685.08
2018-09-10T02:29:43.188Z,99674.21
2018-09-10T02:30:14.346Z,99685.37
2018-09-10T02:30:45.452Z,99681.39
2018-09-10T02:31:16.580Z,99685.86
2018-09-10T02:31:47.730Z,99681.02
2018-09-10T02:32:18.915Z,99681.87
2018-09-10T02:32:50.084Z,99680.07
2018-09-10T02:33:21.204Z,99681.50
2018-09-10T02:33:52.390Z,99683.77
2018-09-10T02:34:23.525Z,99687.01
2018-09-10T02:34:54.700Z,99684.08
2018-09-10T02:35:25.830Z,99680.45
2018-09-10T02:35:56.944Z,99682.38
2018-09-10T02:36:28.127Z,99673.48
2018-09-10T02:36:59.241Z,99673.28
2018-09-10T02:37:30.374Z,99679.13
2018-09-10T02:38:01.565Z,99680.67
2018-09-10T02:38:32.735Z,99679.45
2018-09-10T02:39:03.941Z,99680.77
2018-09-10T02:39:35.123Z,99685.83
2018-09-10T02:40:06.270Z,99684.61
2018-09-10T02:40:37.400Z,99679.52
2018-09-10T02:41:08.555Z,99680.84
2018-09-10T02:41:39.727Z,99683.67
2018-09-10T02:42:10.900Z,99682.07
2018-09-10T02:42:42.098Z,99685.27
2018-09-10T02:43:13.313Z,99679.25
2018-09-10T02:43:44.469Z,99684.44
2018-09-10T02:44:15.685Z,99682.45
2018-09-10T02:44:46.872Z,99686.70
2018-09-10T02:45:18.004Z,99686.91
2018-09-10T02:45:49.232Z,99685.41
2018-09-10T02:46:20.420Z,99686.34
2018-09-10T02:46:51.615Z,99689.93
2018-09-10T02:47:22.907Z,99690.88
2018-09-10T02:47:54.058Z,99692.20
2018-09-10T02:48:25.190Z,99692.68
2018-09-10T02:48:56.324Z,99687.00
2018-09-10T02:49:27.445Z,99688.33
2018-09-10T02:49:58.580Z,99691.64
2018-09-10T02:50:29.762Z,99693.80
2018-09-10T02:51:00.899Z,99689.72
2018-09-10T02:51:32.011Z,99691.81
2018-09-10T02:52:03.161Z,99690.69
2018-09-10T02:52:34.309Z,99691.25
2018-09-10T02:53:05.464Z,99690.52
2018-09-10T02:53:36.710Z,99696.64
2018-09-10T02:54:07.857Z,99696.26
2018-09-10T02:54:39.066Z,99695.98
2018-09-10T02:55:10.298Z,99694.17
2018-09-10T02:55:41.457Z,99697.78
2018-09-10T02:56:12.659Z,99697.30
2018-09-10T02:56:43.857Z,99696.81
2018-09-10T02:57:15.362Z,99701.65
2018-09-10T02:57:46.503Z,99709.59
2018-09-10T02:58:17.622Z,99698.72
2018-09-10T02:58:48.818Z,99699.45
2018-09-10T02:59:19.969Z,99702.98
2018-09-10T02:59:51.142Z,99702.03
2018-09-10T03:00:22.320Z,99706.07
2018-09-10T03:00:53.500Z,99703.08
2018-09-10T03:01:24.815Z,99702.98
2018-09-10T03:01:55.952Z,99703.26
2018-09-10T03:02:27.143Z,99702.77
2018-09-10T03:02:58.295Z,99702.59
2018-09-10T03:03:29.508Z,99705.41
2018-09-10T03:04:00.653Z,99712.80
2018-09-10T03:04:31.810Z,99704.76
2018-09-10T03:05:03.028Z,99711.27
2018-09-10T03:05:34.173Z,99708.17
2018-09-10T03:06:05.307Z,99699.36
2018-09-10T03:06:36.473Z,99702.33
2018-09-10T03:07:07.646Z,99707.31
2018-09-10T03:07:38.820Z,99705.43
2018-09-10T03:08:10.000Z,99704.49
2018-09-10T03:08:41.115Z,99706.20
2018-09-10T03:09:12.218Z,99707.03
2018-09-10T03:09:43.395Z,99711.48
2018-09-10T03:10:14.529Z,99710.72
2018-09-10T03:10:45.690Z,99707.31
2018-09-10T03:11:16.885Z,99708.63
2018-09-10T03:11:48.078Z,99711.48
2018-09-10T03:12:19.250Z,99704.10
2018-09-10T03:12:50.372Z,99707.69
2018-09-10T03:13:21.497Z,99707.79
2018-09-10T03:13:52.614Z,99712.24
2018-09-10T03:14:23.765Z,99709.59
2018-09-10T03:14:54.933Z,99706.36
2018-09-10T03:15:26.125Z,99707.23
2018-09-10T03:15:57.257Z,99710.27
2018-09-10T03:16:28.380Z,99711.10
2018-09-10T03:16:59.552Z,99715.45
2018-09-10T03:17:30.683Z,99716.78
2018-09-10T03:18:01.865Z,99713.27
2018-09-10T03:18:32.979Z,99716.67
2018-09-10T03:19:04.160Z,99717.89
2018-09-10T03:19:35.276Z,99714.31
2018-09-10T03:20:06.448Z,99715.81
2018-09-10T03:20:37.975Z,99721.59
2018-09-10T03:21:09.848Z,99719.44
2018-09-10T03:21:41.040Z,99717.52
2018-09-10T03:22:12.577Z,99727.94
2018-09-10T03:22:44.075Z,99698.42
2018-09-10T03:23:17.296Z,99723.48
2018-09-10T03:23:48.504Z,99722.05
2018-09-10T03:24:19.637Z,99730.77
2018-09-10T03:24:50.762Z,99727.91
2018-09-10T03:25:21.948Z,99726.03
2018-09-10T03:25:53.068Z,99725.47
2018-09-10T03:26:24.234Z,99726.13
2018-09-10T03:26:55.349Z,99728.57
2018-09-10T03:27:26.501Z,99726.31
2018-09-10T03:27:57.695Z,99727.53
2018-09-10T03:28:28.839Z,99720.91
2018-09-10T03:28:59.986Z,99726.41
2018-09-10T03:29:31.114Z,99728.78
2018-09-10T03:30:02.237Z,99728.40
2018-09-10T03:30:33.368Z,99733.80
2018-09-10T03:31:41.040Z,99733.86
2018-09-10T03:32:12.254Z,99731.70
2018-09-10T03:32:43.460Z,99733.58
2018-09-10T03:33:14.684Z,99728.88
2018-09-10T03:33:45.930Z,99732.47
2018-09-10T03:34:16.998Z,99731.59
2018-09-10T03:34:48.111Z,99726.02
2018-09-10T03:35:19.288Z,99728.67
2018-09-10T03:35:50.433Z,99727.73
2018-09-10T03:36:21.557Z,99732.08
2018-09-10T03:36:52.730Z,99731.14
2018-09-10T03:37:23.902Z,99730.94
2018-09-10T03:37:55.023Z,99732.27
2018-09-10T03:38:26.201Z,99732.55
2018-09-10T03:38:57.394Z,99733.80
2018-09-10T03:39:28.498Z,99736.72
2018-09-10T03:39:59.635Z,99734.42
2018-09-10T03:40:30.773Z,99729.13
2018-09-10T03:41:01.938Z,99729.62
2018-09-10T03:41:33.171Z,99733.20
2018-09-10T03:42:04.357Z,99737.28
2018-09-10T03:42:35.495Z,99733.20
2018-09-10T03:43:06.628Z,99734.53
2018-09-10T03:43:37.773Z,99734.63
2018-09-10T03:44:08.900Z,99734.73
2018-09-10T03:44:40.046Z,99737.77
2018-09-10T03:45:11.172Z,99732.47
2018-09-10T03:45:42.300Z,99741.35
2018-09-10T03:46:13.409Z,99736.33
2018-09-10T03:46:44.576Z,99743.34
2018-09-10T03:47:15.886Z,99735.84
2018-09-10T03:47:46.993Z,99743.79
2018-09-10T03:48:18.132Z,99742.84
2018-09-10T03:48:49.237Z,99742.84
2018-09-10T03:49:20.360Z,99742.84
2018-09-10T03:49:51.490Z,99744.17
2018-09-10T03:50:22.606Z,99747.02
2018-09-10T03:50:53.711Z,99745.31
2018-09-10T03:51:24.864Z,99743.81
2018-09-10T03:51:56.061Z,99746.47
2018-09-10T03:52:27.179Z,99745.31
2018-09-10T03:52:58.355Z,99740.61
2018-09-10T03:53:29.464Z,99749.48
2018-09-10T03:54:00.606Z,99741.61
2018-09-10T03:54:31.789Z,99743.80
2018-09-10T03:55:02.957Z,99748.71
2018-09-10T03:55:34.104Z,99747.88
2018-09-10T03:56:05.219Z,99749.66
2018-09-10T03:56:36.373Z,99748.53
2018-09-10T03:57:07.610Z,99756.58
2018-09-10T03:57:38.748Z,99751.73
2018-09-10T03:58:09.935Z,99742.86
2018-09-10T03:58:41.056Z,99746.62
2018-09-10T03:59:12.174Z,99748.33
2018-09-10T03:59:43.291Z,99751.36
2018-09-10T04:00:14.415Z,99747.78
2018-09-10T04:00:45.532Z,99755.72
2018-09-10T04:01:16.726Z,99750.80
2018-09-10T04:01:47.845Z,99755.72
2018-09-10T04:02:18.963Z,99755.51
2018-09-10T04:02:50.124Z,99753.73
2018-09-10T04:03:21.295Z,99758.26
2018-09-10T04:03:52.833Z,99760.45
2018-09-10T04:04:23.974Z,99759.13
2018-09-10T04:04:55.424Z,99763.45
2018-09-10T04:05:26.587Z,99762.61
2018-09-10T04:05:57.711Z,99760.45
2018-09-10T04:06:28.886Z,99761.39
2018-09-10T04:07:00.003Z,99765.75
2018-09-10T04:07:31.147Z,99759.87
2018-09-10T04:08:02.969Z,99765.05
2018-09-10T04:08:34.128Z,99772.16
2018-09-10T04:09:05.255Z,99762.52
2018-09-10T04:09:36.362Z,99773.48
2018-09-10T04:10:07.515Z,99765.44
2018-09-10T04:10:38.654Z,99770.28
2018-09-10T04:11:09.775Z,99765.37
2018-09-10T04:11:40.901Z,99772.34
2018-09-10T04:12:12.121Z,99773.11
2018-09-10T04:12:43.272Z,99770.36
2018-09-10T04:13:14.419Z,99774.72
2018-09-10T04:13:45.547Z,99769.52
2018-09-10T04:14:16.701Z,99778.41
2018-09-10T04:14:47.873Z,99771.89
2018-09-10T04:15:19.109Z,99776.70
2018-09-10T04:15:50.244Z,99773.11
2018-09-10T04:16:21.383Z,99776.98
2018-09-10T04:16:52.490Z,99775.60
2018-09-10T04:17:23.614Z,99775.89
2018-09-10T04:17:54.832Z,99782.02
2018-09-10T04:18:25.991Z,99784.67
2018-09-10T04:18:57.152Z,99783.91
2018-09-10T04:19:28.307Z,99781.36
2018-09-10T04:19:59.453Z,99785.02
2018-09-10T04:20:30.640Z,99788.61
2018-09-10T04:21:01.749Z,99787.00
2018-09-10T04:21:32.886Z,99786.33
2018-09-10T04:22:04.008Z,99785.94
2018-09-10T04:22:35.125Z,99786.49
2018-09-10T04:23:06.260Z,99786.09
2018-09-10T04:23:37.393Z,99790.06
2018-09-10T04:24:08.520Z,99789.48
2018-09-10T04:24:39.741Z,99789.08
2018-09-10T04:25:10.897Z,99783.54
2018-09-10T04:25:42.083Z,99788.82
2018-09-10T04:26:13.224Z,99784.55
2018-09-10T04:26:44.398Z,99787.47
2018-09-10T04:27:15.509Z,99788.77
2018-09-10T04:27:46.611Z,99785.48
2018-09-10T04:28:17.785Z,99789.36
2018-09-10T04:28:48.890Z,99783.59
2018-09-10T04:29:20.067Z,99783.19
2018-09-10T04:29:51.186Z,99789.03
2018-09-10T04:30:22.423Z,99793.84
2018-09-10T04:30:53.618Z,99788.42
2018-09-10T04:31:24.786Z,99787.20
2018-09-10T04:31:55.915Z,99784.55
2018-09-10T04:32:27.089Z,99787.09
2018-09-10T04:32:58.283Z,99789.56
2018-09-10T04:33:29.387Z,99789.56
2018-09-10T04:34:00.559Z,99785.50
2018-09-10T04:34:31.673Z,99786.11
2018-09-10T04:35:02.810Z,99790.92
2018-09-10T04:35:34.031Z,99793.55
2018-09-10T04:36:05.284Z,99797.48
2018-09-10T04:36:36.488Z,99794.83
2018-09-10T04:37:07.595Z,99799.34
2018-09-10T04:37:38.740Z,99797.59
2018-09-10T04:38:09.855Z,99798.66
2018-09-10T04:38:41.035Z,99791.97
2018-09-10T04:39:12.163Z,99796.48
2018-09-10T04:44:32.120Z,99793.00
2018-09-10T04:45:03.284Z,99795.72
2018-09-10T04:45:34.412Z,99799.02
2018-09-10T04:46:05.576Z,99794.48
2018-09-10T04:46:36.751Z,99787.52
2018-09-10T04:47:07.876Z,99791.36
2018-09-10T04:47:38.992Z,99789.94
2018-09-10T04:48:10.146Z,99788.91
2018-09-10T04:48:41.375Z,99784.48
2018-09-10T04:49:12.504Z,99790.69
2018-09-10T04:49:43.642Z,99792.58
2018-09-10T04:50:14.764Z,99786.39
2018-09-10T04:50:45.934Z,99787.98
2018-09-10T04:51:17.051Z,99790.69
2018-09-10T04:51:48.209Z,99790.13
2018-09-10T04:52:19.343Z,99791.12
2018-09-10T04:52:50.479Z,99790.17
2018-09-10T04:53:21.621Z,99785.76
2018-09-10T04:53:52.767Z,99790.62
2018-09-10T04:54:23.948Z,99789.42
2018-09-10T04:54:55.142Z,99788.47
2018-09-10T04:55:26.264Z,99800.20
2018-09-10T04:55:57.492Z,99790.55
2018-09-10T04:56:28.691Z,99792.96
2018-09-10T04:56:59.808Z,99793.45
2018-09-10T04:57:30.924Z,99792.77
2018-09-10T04:58:02.104Z,99789.78
2018-09-10T04:58:33.210Z,99801.88
2018-09-10T04:59:04.385Z,99800.18
2018-09-10T04:59:35.566Z,99796.94
2018-09-10T05:00:06.702Z,99792.28
2018-09-10T05:00:37.870Z,99791.12
2018-09-10T05:01:09.053Z,99791.52
2018-09-10T05:01:40.167Z,99795.27
2018-09-10T05:02:11.309Z,99790.91
2018-09-10T05:02:42.480Z,99789.58
2018-09-10T05:03:13.587Z,99793.81
2018-09-10T05:03:44.722Z,99791.37
2018-09-10T05:04:15.863Z,99790.49
2018-09-10T05:04:46.983Z,99791.69
2018-09-10T05:05:18.130Z,99791.11
2018-09-10T05:05:49.292Z,99788.66
2018-09-10T05:06:20.467Z,99792.06
2018-09-10T05:06:51.605Z,99789.78
2018-09-10T05:07:22.718Z,99781.13
2018-09-10T05:07:53.878Z,99795.65
2018-09-10T05:08:24.985Z,99796.85
2018-09-10T05:08:56.163Z,99788.24
2018-09-10T05:09:27.327Z,99792.70
2018-09-10T05:09:58.486Z,99795.14
2018-09-10T05:10:29.652Z,99800.22
2018-09-10T05:11:00.769Z,99799.77
2018-09-10T05:11:31.898Z,99798.68
2018-09-10T05:12:03.017Z,99801.92
2018-09-10T05:12:34.175Z,99799.64
2018-09-10T05:13:05.422Z,99805.46
2018-09-10T05:13:36.623Z,99798.84
2018-09-10T05:14:07.829Z,99797.01
2018-09-10T05:14:39.057Z,99799.80
2018-09-10T05:15:10.191Z,99802.50
2018-09-10T05:15:41.382Z,99809.66
2018-09-10T05:16:12.573Z,99800.76
2018-09-10T05:16:43.679Z,99806.43
2018-09-10T05:17:14.841Z,99806.55
2018-09-10T05:17:46.029Z,99807.19
2018-09-10T05:18:17.216Z,99803.46
2018-09-10T05:18:48.359Z,99816.80
2018-09-10T05:19:19.561Z,99809.63
2018-09-10T05:19:50.695Z,99808.01
2018-09-10T05:20:21.812Z,99813.32
2018-09-10T05:20:52.965Z,99813.84
2018-09-10T05:21:24.079Z,99809.44
2018-09-10T05:21:55.281Z,99808.39
2018-09-10T05:22:26.372Z,99809.73
2018-09-10T05:22:57.516Z,99811.64
2018-09-10T05:23:28.673Z,99809.16
2018-09-10T05:23:59.787Z,99805.13
2018-09-10T05:24:30.893Z,99808.86
2018-09-10T05:25:02.057Z,99810.45
2018-09-10T05:25:33.191Z,99803.73
2018-09-10T05:26:04.327Z,99816.22
2018-09-10T05:26:35.466Z,99802.59
2018-09-10T05:27:06.574Z,99804.17
2018-09-10T05:27:37.691Z,99807.34
2018-09-10T05:28:08.869Z,99812.48
2018-09-10T05:28:40.080Z,99811.15
2018-09-10T05:29:11.202Z,99808.16
2018-09-10T05:29:42.374Z,99805.00
2018-09-10T05:30:13.580Z,99810.32
2018-09-10T05:30:44.722Z,99807.42
2018-09-10T05:31:15.920Z,99810.08
2018-09-10T05:31:47.027Z,99808.91
2018-09-10T05:32:18.261Z,99811.33
2018-09-10T05:32:49.390Z,99810.61
2018-09-10T05:33:20.521Z,99810.74
2018-09-10T05:33:51.715Z,99811.24
2018-09-10T05:34:22.910Z,99811.99
2018-09-10T05:34:54.076Z,99815.61
2018-09-10T05:35:25.246Z,99807.16
2018-09-10T05:35:56.433Z,99812.24
2018-09-10T05:36:27.560Z,99810.94
2018-09-10T05:36:58.703Z,99810.85
2018-09-10T05:37:29.858Z,99806.48
2018-09-10T05:38:01.009Z,99813.14
2018-09-10T05:38:32.166Z,99808.95
2018-09-10T05:39:03.372Z,99810.47
2018-09-10T05:39:34.488Z,99807.67
2018-09-10T05:40:05.683Z,99809.75
2018-09-10T05:40:36.792Z,99805.88
2018-09-10T05:41:08.039Z,99809.75
2018-09-10T05:41:39.339Z,99813.14
2018-09-10T05:42:10.448Z,99802.70
2018-09-10T05:42:41.616Z,99811.18
2018-09-10T05:43:12.794Z,99816.66
2018-09-10T05:43:43.973Z,99811.95
2018-09-10T05:44:15.143Z,99812.66
2018-09-10T05:44:46.255Z,99814.70
2018-09-10T05:45:17.394Z,99813.61
2018-09-10T05:45:48.533Z,99809.40
2018-09-10T05:46:19.727Z,99811.70
2018-09-10T05:46:50.931Z,99815.70
2018-09-10T05:47:22.148Z,99811.95
2018-09-10T05:47:53.251Z,99808.44
2018-09-10T05:48:24.482Z,99813.00
2018-09-10T05:48:55.605Z,99813.42
2018-09-10T05:49:26.795Z,99813.77
2018-09-10T05:49:57.959Z,99814.69
2018-09-10T05:50:29.070Z,99813.32
2018-09-10T05:51:00.185Z,99811.12
2018-09-10T05:51:31.406Z,99809.87
2018-09-10T05:52:02.576Z,99812.28
2018-09-10T05:52:33.731Z,99811.70
2018-09-10T05:53:04.923Z,99808.83
2018-09-10T05:53:36.001Z,99811.62
2018-09-10T05:54:07.118Z,99811.62
2018-09-10T05:54:38.270Z,99808.45
2018-09-10T05:55:09.374Z,99814.48
2018-09-10T05:55:40.606Z,99810.16
2018-09-10T05:56:11.715Z,99809.54
2018-09-10T05:56:42.921Z,99815.61
2018-09-10T05:57:14.096Z,99809.66
2018-09-10T05:57:45.211Z,99806.16
2018-09-10T05:58:16.329Z,99813.61
2018-09-10T05:58:47.462Z,99807.45
2018-09-10T05:59:18.604Z,99806.71
2018-09-10T05:59:49.761Z,99806.00
2018-09-10T06:00:20.868Z,99800.59
2018-09-10T06:00:52.076Z,99807.62
2018-09-10T06:01:23.190Z,99807.88
2018-09-10T06:01:54.397Z,99804.04
2018-09-10T06:02:25.534Z,99804.91
2018-09-10T06:02:56.663Z,99805.87
2018-09-10T06:03:27.856Z,99796.08
2018-09-10T06:03:59.046Z,99805.40
2018-09-10T06:04:30.173Z,99805.67
2018-09-10T06:05:01.295Z,99806.66
2018-09-10T06:05:32.405Z,99800.00
2018-09-10T06:06:03.641Z,99799.51
2018-09-10T06:06:34.760Z,99802.30
2018-09-10T06:07:05.914Z,99802.67
2018-09-10T06:07:37.109Z,99803.84
2018-09-10T06:08:08.227Z,99803.26
2018-09-10T06:08:39.394Z,99808.39
2018-09-10T06:09:10.602Z,99797.86
2018-09-10T06:09:41.748Z,99799.34
2018-09-10T06:10:12.870Z,99800.55
2018-09-10T06:10:44.032Z,99799.80
2018-09-10T06:11:15.230Z,99805.85